Open Full Screen Window  High Contrast Mode
Wind Gusting 00 knots
05
February 25, 2018 5:09 AM EST
Weather Information
Wind Direction
  200 °
Wind Speed
  05 kt (6 mph)
Wind Gust
  00 kt (0 mph)
Altimeter
29.63 in
Visibility
10 SM
Temperature
13° C
55° F
Dewpoint
12° C
54° F
Humidity
94%
1hr Rain Fall
00.01 in.
24hr Rain Fall
01.04 in.
Sky Condition
Scattered @ 6,500 ft
Scattered @ 5,500 ft
VFR

METAR KPOV 251009Z AUTO 20005KT 10SM SCT055 SCT065 13/12 A2963 RMK AO2 P0001 T01310115

*Background is not an actual portrayal of the airport.